AirNav   Duncan Aviation - Near you to keep you 
flying
 
 664 users online  

32MI William Beaumont Hospital Heliport
Royal Oak, Michigan, USA

GOING TO ROYAL OAK?


FAA INFORMATION EFFECTIVE 15 JULY 2021

Location

FAA Identifier: 32MI
Lat/Long: 42-30-54.2800N 083-11-39.0000W
42-30.904667N 083-11.650000W
42.5150778,-83.1941667
(estimated)
Elevation: 771 ft. / 235 m (estimated)
Variation: 06W (1990)
From city: 1 mile W of ROYAL OAK, MI
Time zone: UTC -4 (UTC -5 during Standard Time)
Zip code: 48073

Heliport Operations

Heliport use: Private use, MEDICAL USE.
Activation date: 03/1993
Control tower: no
ARTCC: CLEVELAND CENTER
FSS: LANSING FLIGHT SERVICE STATION
Attendance: CONTINUOUS
Segmented circle: no
Lights: SS-SR

Heliport Communications

WX AWOS-3 at VLL (1.8 nm NE): 119.475 (248-288-4649)
WX ASOS at DET (10 nm SE): PHONE 313-371-9696
WX ASOS at PTK (13 nm NW): 125.025 (248-886-8551)
WX ASOS at DTW (19 nm S): PHONE 734-955-5015

Nearby radio navigation aids

VOR radial/distance  VOR name  Freq  Var
SVMr073/18.8SALEM VORTAC114.3003W
DXOr029/19.7DETROIT VOR/DME113.4006W
CRLr026/30.4CARLETON VOR/DME115.7003W
FNTr144/36.4FLINT VORTAC116.9006W

 
NDB name  Hdg/Dist  Freq  Var  ID
GROSSE ILE003/24.941907WRYS .-. -.-- ...

Heliport Services

Runway Information

Helipad H1

Dimensions: 53 x 53 ft. / 16 x 16 m
Surface: concrete
Runway edge lights: PERI
Latitude: 42-30.904667N
Longitude: 083-11.650000W
Elevation: 771.0 ft.
Traffic pattern: leftleft
Obstructions: bldg
H1 116 FT BLDG 120 FT E; 130 FT CHIMNEYS 235 FT S; 33 FT LGT POLES IN VCNTY.

Heliport Ownership and Management from official FAA records

Ownership: Privately-owned
Owner: WILLIAM BEAUMONT HOSPITAL
3601 W 13 MILE RD
ROYAL OAK, MI 48072
Manager: CHRISTINE LAKING
3601 W 13 MILE RD
ROYAL OAK, MI 48072
Phone (248) 898-2691

Additional Remarks

FOR CD CTC DETROIT APCH AT 800-499-8181.

Instrument Procedures

There are no published instrument procedures at 32MI.

Some nearby airports with instrument procedures:

KVLL - Oakland/Troy Airport (2 nm NE)
KDET - Coleman A Young Municipal Airport (10 nm SE)
KPTK - Oakland County International Airport (13 nm NW)
1D2 - Canton-Plymouth-Mettetal Airport (15 nm SW)
KMTC - Selfridge Air National Guard Base (17 nm E)
57D - Ray Community Airport (19 nm NE)
Y47 - Oakland Southwest Airport (19 nm W)
D98 - Romeo State Airport (19 nm NE)
KDTW - Detroit Metro Wayne County Airport (19 nm S)
 
Loc | Ops | Rwys | IFR | FBO | Links
Com | Nav | Svcs | Stats | Notes
Area around 32MI (William Beaumont Hospital Heliport)
 
Road maps at: MapQuest Bing Google
 
Aerial photo
No photo
 
Sectional chart

 
Airport distance calculator
Flying to William Beaumont Hospital Heliport? Find the distance to fly.

From to 32MI

Sunrise and sunset
Times for 01-Aug-2021
 Local
(UTC-4)
 Zulu
(UTC)
Morning civil twilight05:5409:54
Sunrise06:2610:26
Sunset20:5200:52
Evening civil twilight21:2401:24

Current date and time
Zulu (UTC)  01-Aug-2021 04:42:43
Local (UTC-4)  01-Aug-2021 00:42:43
 
METAR
KVLL 
2nm NE 
010415Z AUTO 26003KT 10SM CLR 21/13 A2991 RMK AO2 T02120125
KDET 
10nm SE 
010353Z 27005KT 10SM CLR 22/12 A2989 RMK AO2 SLP121 T02220122
KPTK 
13nm NW 
010353Z 29007KT 10SM FEW140 SCT250 19/13 A2989 RMK AO2 SLP117 LAST T01940128
KMTC 
18nm E 
010356Z AUTO 26004KT 10SM FEW130 21/13 A2987 RMK AO2 SLP117 T02070131 $
CYQG 
18nm SE 
010400Z AUTO 26006KT 9SM CLR 19/13 A2989 RMK SLP122 DENSITY ALT 1300FT
KDTW 
18nm S 
010353Z 26004KT 10SM FEW250 19/13 A2990 RMK AO2 SLPNO T01940133
TAF
KDET 
10nm SE 
311720Z 3118/0118 24008KT P6SM SCT050 BKN180 FM010000 24005KT P6SM SCT120 BKN200 FM011000 27007KT P6SM SCT050 BKN100 PROB30 0112/0115 4SM SHRA BKN025 OVC080 FM011500 30010KT P6SM BKN040
KPTK 
13nm NW 
311720Z 3118/0118 24009KT P6SM SCT040 BKN160 FM010000 25004KT P6SM SCT120 BKN200 FM010800 29006KT P6SM SCT050 BKN100 PROB30 0110/0114 4SM -TSRA BKN025CB OVC080 FM011400 34011KT P6SM BKN030
KMTC 
18nm E 
010100Z 0101/0207 VRB06KT 9999 FEW080 SCT250 QNH2985INS BECMG 0107/0108 34012G18KT 8000 -SHRA BKN030 QNH2985INS TEMPO 0108/0111 -TSRA BKN020CB BECMG 0113/0114 32012G18KT 9999 NSW BKN050 QNH2987INS BECMG 0200/0201 36009KT 9999 SCT020 SCT035 QNH2997INS TX26/0120Z TN17/0111Z LAST NO AMDS AFT 0103 NEXT 0109
CYQG 
18nm SE 
010334Z 0103/0124 24012KT P6SM FEW050 BECMG 0104/0106 BKN040 BKN100 FM010900 32008KT P6SM -SHRA OVC030 PROB40 0109/0112 2SM TSRA BR BKN012 OVC030CB FM011400 32012KT 6SM -SHRA BR OVC030 PROB30 0115/0120 VRB15G25KT 1SM +TSRA BR BKN009 OVC020CB FM012000 32012G22KT 6SM -SHRA BR OVC030 PROB30 0120/0124 VRB15G25KT 1SM +TSRA BR BKN009 OVC020CB RMK FCST BASED ON AUTO OBS. NXT FCST BY 010600Z
KDTW 
18nm S 
010306Z 0103/0206 23006KT P6SM SCT120 BKN200 FM010800 28007KT P6SM BKN050 BKN100 TEMPO 0108/0110 6SM -SHRA SCT025 BKN045 FM011500 33011G18KT P6SM BKN040 FM020000 34006KT P6SM SKC
NOTAMs
Click for the latest NOTAMs
NOTAMs are issued by the DoD/FAA and will open in a separate window not controlled by AirNav.

 

 
 

Would you like to see your business listed on this page?

 If your business provides an interesting product or service to pilots, flight crews, aircraft, or users of the William Beaumont Hospital Heliport, you should consider listing it here.  To start the listing process, click on the button below
 
Add a business
 

Other Pages about William Beaumont Hospital Heliport

Update a link
 
Copyright © AirNav, LLC. All rights reserved. Privacy Policy  Contact